sensor_id;sensor_type;location;lat;lon;timestamp;pressure;altitude;pressure_sealevel;temperature;humidity
12722;BME280;6425;50.316;8.114;2022-10-28T00:02:29;99629.00;;;15.45;70.08
12722;BME280;6425;50.316;8.114;2022-10-28T00:07:35;99621.06;;;15.28;71.22
12722;BME280;6425;50.316;8.114;2022-10-28T00:12:36;99602.00;;;15.22;70.65
12722;BME280;6425;50.316;8.114;2022-10-28T00:17:38;99600.53;;;15.50;70.20
12722;BME280;6425;50.316;8.114;2022-10-28T00:22:39;99602.53;;;15.29;70.55
12722;BME280;6425;50.316;8.114;2022-10-28T00:27:39;99607.00;;;15.85;70.89
12722;BME280;6425;50.316;8.114;2022-10-28T00:32:41;99600.97;;;16.17;69.34
12722;BME280;6425;50.316;8.114;2022-10-28T00:37:41;99584.41;;;16.17;68.95
12722;BME280;6425;50.316;8.114;2022-10-28T00:42:42;99593.63;;;16.02;68.74
12722;BME280;6425;50.316;8.114;2022-10-28T00:47:47;99598.94;;;15.93;69.01
12722;BME280;6425;50.316;8.114;2022-10-28T00:52:55;99619.94;;;12.66;81.75
12722;BME280;6425;50.316;8.114;2022-10-28T00:57:58;99598.81;;;14.23;77.49
12722;BME280;6425;50.316;8.114;2022-10-28T01:03:02;99593.47;;;15.18;75.32
12722;BME280;6425;50.316;8.114;2022-10-28T01:08:03;99584.44;;;15.62;71.61
12722;BME280;6425;50.316;8.114;2022-10-28T01:13:10;99569.97;;;15.26;71.98
12722;BME280;6425;50.316;8.114;2022-10-28T01:18:19;99560.44;;;14.88;75.14
12722;BME280;6425;50.316;8.114;2022-10-28T01:23:25;99544.44;;;14.95;74.83
12722;BME280;6425;50.316;8.114;2022-10-28T01:28:44;99553.09;;;15.38;73.40
12722;BME280;6425;50.316;8.114;2022-10-28T01:33:57;99552.41;;;12.80;82.00
12722;BME280;6425;50.316;8.114;2022-10-28T01:39:11;99565.00;;;12.71;84.62
12722;BME280;6425;50.316;8.114;2022-10-28T01:44:20;99543.97;;;14.31;79.94
12722;BME280;6425;50.316;8.114;2022-10-28T01:49:26;99558.94;;;12.00;86.24
12722;BME280;6425;50.316;8.114;2022-10-28T01:54:32;99545.09;;;14.25;80.54
12722;BME280;6425;50.316;8.114;2022-10-28T01:59:34;99559.13;;;13.83;79.81
12722;BME280;6425;50.316;8.114;2022-10-28T02:04:38;99545.63;;;13.97;79.72
12722;BME280;6425;50.316;8.114;2022-10-28T02:09:50;99535.16;;;14.09;79.45
12722;BME280;6425;50.316;8.114;2022-10-28T02:15:10;99525.22;;;14.49;78.88
12722;BME280;6425;50.316;8.114;2022-10-28T02:20:18;99516.38;;;14.62;78.46
12722;BME280;6425;50.316;8.114;2022-10-28T02:25:25;99510.88;;;15.37;77.74
12722;BME280;6425;50.316;8.114;2022-10-28T02:30:31;99536.41;;;12.72;87.38
12722;BME280;6425;50.316;8.114;2022-10-28T02:35:38;99530.50;;;13.01;83.32
12722;BME280;6425;50.316;8.114;2022-10-28T02:40:44;99513.97;;;14.04;82.08
12722;BME280;6425;50.316;8.114;2022-10-28T02:45:48;99521.94;;;13.80;80.24
12722;BME280;6425;50.316;8.114;2022-10-28T02:50:55;99520.03;;;13.96;78.13
12722;BME280;6425;50.316;8.114;2022-10-28T02:55:59;99521.94;;;12.92;85.56
12722;BME280;6425;50.316;8.114;2022-10-28T03:01:00;99505.69;;;14.25;80.63
12722;BME280;6425;50.316;8.114;2022-10-28T03:06:02;99496.53;;;14.60;77.62
12722;BME280;6425;50.316;8.114;2022-10-28T03:11:03;99497.53;;;15.00;76.65
12722;BME280;6425;50.316;8.114;2022-10-28T03:16:03;99523.19;;;13.27;80.32
12722;BME280;6425;50.316;8.114;2022-10-28T03:21:05;99510.13;;;12.44;85.40
12722;BME280;6425;50.316;8.114;2022-10-28T03:26:06;99481.44;;;14.06;82.45
12722;BME280;6425;50.316;8.114;2022-10-28T03:31:06;99492.59;;;13.08;84.09
12722;BME280;6425;50.316;8.114;2022-10-28T03:36:09;99512.88;;;12.12;85.98
12722;BME280;6425;50.316;8.114;2022-10-28T03:41:09;99524.00;;;11.36;92.89
12722;BME280;6425;50.316;8.114;2022-10-28T03:46:09;99535.84;;;11.42;93.91
12722;BME280;6425;50.316;8.114;2022-10-28T03:51:11;99506.75;;;12.79;91.48
12722;BME280;6425;50.316;8.114;2022-10-28T03:56:12;99502.66;;;13.65;86.42
12722;BME280;6425;50.316;8.114;2022-10-28T04:01:13;99512.28;;;14.34;82.70
12722;BME280;6425;50.316;8.114;2022-10-28T04:06:15;99502.56;;;14.77;80.71
12722;BME280;6425;50.316;8.114;2022-10-28T04:11:16;99501.28;;;15.24;77.55
12722;BME280;6425;50.316;8.114;2022-10-28T04:16:16;99506.25;;;15.22;77.47
12722;BME280;6425;50.316;8.114;2022-10-28T04:21:18;99493.94;;;14.99;76.36
12722;BME280;6425;50.316;8.114;2022-10-28T04:26:19;99490.06;;;15.55;75.59
12722;BME280;6425;50.316;8.114;2022-10-28T04:31:19;99483.66;;;14.25;77.62
12722;BME280;6425;50.316;8.114;2022-10-28T04:36:21;99487.41;;;14.75;76.36
12722;BME280;6425;50.316;8.114;2022-10-28T04:41:22;99474.81;;;15.18;74.61
12722;BME280;6425;50.316;8.114;2022-10-28T04:46:22;99468.72;;;15.21;73.91
12722;BME280;6425;50.316;8.114;2022-10-28T04:51:24;99473.47;;;15.11;74.20
12722;BME280;6425;50.316;8.114;2022-10-28T04:56:25;99459.41;;;15.07;74.97
12722;BME280;6425;50.316;8.114;2022-10-28T05:01:25;99446.72;;;15.11;76.45
12722;BME280;6425;50.316;8.114;2022-10-28T05:06:27;99444.41;;;15.23;75.87
12722;BME280;6425;50.316;8.114;2022-10-28T05:11:28;99443.22;;;15.79;74.99
12722;BME280;6425;50.316;8.114;2022-10-28T05:16:29;99442.94;;;14.92;78.57
12722;BME280;6425;50.316;8.114;2022-10-28T05:21:31;99439.94;;;14.83;76.52
12722;BME280;6425;50.316;8.114;2022-10-28T05:26:31;99449.69;;;14.55;78.90
12722;BME280;6425;50.316;8.114;2022-10-28T05:31:32;99442.38;;;14.95;75.50
12722;BME280;6425;50.316;8.114;2022-10-28T05:36:34;99443.19;;;15.40;73.28
12722;BME280;6425;50.316;8.114;2022-10-28T05:41:35;99447.50;;;15.56;72.68
12722;BME280;6425;50.316;8.114;2022-10-28T05:46:35;99437.75;;;15.74;72.76
12722;BME280;6425;50.316;8.114;2022-10-28T05:51:37;99439.69;;;15.68;71.49
12722;BME280;6425;50.316;8.114;2022-10-28T05:56:38;99451.53;;;16.08;70.32
12722;BME280;6425;50.316;8.114;2022-10-28T06:01:39;99449.34;;;15.76;70.19
12722;BME280;6425;50.316;8.114;2022-10-28T06:06:41;99456.50;;;15.77;71.16
12722;BME280;6425;50.316;8.114;2022-10-28T06:11:41;99463.56;;;15.54;72.30
12722;BME280;6425;50.316;8.114;2022-10-28T06:16:42;99459.94;;;15.59;70.71
12722;BME280;6425;50.316;8.114;2022-10-28T06:21:44;99468.81;;;15.01;74.02
12722;BME280;6425;50.316;8.114;2022-10-28T06:26:44;99479.63;;;16.20;72.90
12722;BME280;6425;50.316;8.114;2022-10-28T06:31:45;99500.38;;;15.34;72.93
12722;BME280;6425;50.316;8.114;2022-10-28T06:36:47;99490.13;;;14.90;75.58
12722;BME280;6425;50.316;8.114;2022-10-28T06:41:48;99504.75;;;15.90;73.73
12722;BME280;6425;50.316;8.114;2022-10-28T06:46:48;99491.34;;;16.07;71.64
12722;BME280;6425;50.316;8.114;2022-10-28T06:51:50;99495.00;;;15.58;74.53
12722;BME280;6425;50.316;8.114;2022-10-28T06:56:50;99509.78;;;16.46;72.71
12722;BME280;6425;50.316;8.114;2022-10-28T07:01:51;99507.31;;;16.44;72.04
12722;BME280;6425;50.316;8.114;2022-10-28T07:06:55;99526.16;;;17.38;69.27
12722;BME280;6425;50.316;8.114;2022-10-28T07:11:55;99517.63;;;16.34;70.94
12722;BME280;6425;50.316;8.114;2022-10-28T07:16:56;99527.75;;;16.72;70.80
12722;BME280;6425;50.316;8.114;2022-10-28T07:21:58;99518.28;;;17.26;68.12
12722;BME280;6425;50.316;8.114;2022-10-28T07:26:58;99519.59;;;17.53;66.98
12722;BME280;6425;50.316;8.114;2022-10-28T07:31:59;99502.53;;;17.22;67.62
12722;BME280;6425;50.316;8.114;2022-10-28T07:37:01;99518.00;;;17.47;67.36
12722;BME280;6425;50.316;8.114;2022-10-28T07:42:02;99517.13;;;16.85;69.59
12722;BME280;6425;50.316;8.114;2022-10-28T07:47:03;99516.22;;;17.13;67.61
12722;BME280;6425;50.316;8.114;2022-10-28T07:52:05;99540.03;;;17.57;64.44
12722;BME280;6425;50.316;8.114;2022-10-28T07:57:05;99534.50;;;17.57;63.84
12722;BME280;6425;50.316;8.114;2022-10-28T08:02:06;99530.66;;;17.91;62.77
12722;BME280;6425;50.316;8.114;2022-10-28T08:07:08;99515.78;;;17.87;62.65
12722;BME280;6425;50.316;8.114;2022-10-28T08:12:12;99519.81;;;17.94;61.88
12722;BME280;6425;50.316;8.114;2022-10-28T08:17:13;99524.44;;;17.99;61.71
12722;BME280;6425;50.316;8.114;2022-10-28T08:22:15;99534.16;;;18.15;60.92
12722;BME280;6425;50.316;8.114;2022-10-28T08:27:15;99534.59;;;18.55;59.24
12722;BME280;6425;50.316;8.114;2022-10-28T08:32:15;99539.09;;;18.84;58.32
12722;BME280;6425;50.316;8.114;2022-10-28T08:37:17;99541.75;;;19.02;57.69
12722;BME280;6425;50.316;8.114;2022-10-28T08:42:34;99534.97;;;19.22;58.24
12722;BME280;6425;50.316;8.114;2022-10-28T08:47:41;99529.34;;;19.77;58.32
12722;BME280;6425;50.316;8.114;2022-10-28T08:52:50;99532.03;;;20.50;56.55
12722;BME280;6425;50.316;8.114;2022-10-28T08:57:55;99521.22;;;20.26;56.83
12722;BME280;6425;50.316;8.114;2022-10-28T09:03:07;99531.53;;;20.79;56.09
12722;BME280;6425;50.316;8.114;2022-10-28T09:08:19;99521.84;;;20.45;55.24
12722;BME280;6425;50.316;8.114;2022-10-28T09:13:26;99526.34;;;20.55;54.59
12722;BME280;6425;50.316;8.114;2022-10-28T09:18:46;99528.38;;;20.63;55.15
12722;BME280;6425;50.316;8.114;2022-10-28T09:23:54;99508.81;;;20.86;55.07
12722;BME280;6425;50.316;8.114;2022-10-28T09:29:02;99512.84;;;20.79;54.89
12722;BME280;6425;50.316;8.114;2022-10-28T09:34:13;99505.09;;;20.59;54.63
12722;BME280;6425;50.316;8.114;2022-10-28T09:39:27;99500.53;;;20.41;55.18
12722;BME280;6425;50.316;8.114;2022-10-28T09:44:35;99481.94;;;20.27;53.83
12722;BME280;6425;50.316;8.114;2022-10-28T09:49:39;99498.28;;;21.22;51.25
12722;BME280;6425;50.316;8.114;2022-10-28T09:54:47;99501.41;;;21.21;51.46
12722;BME280;6425;50.316;8.114;2022-10-28T09:59:49;99526.44;;;19.83;55.92
12722;BME280;6425;50.316;8.114;2022-10-28T10:04:49;99523.69;;;18.77;62.39
12722;BME280;6425;50.316;8.114;2022-10-28T10:09:51;99527.69;;;19.26;65.23
12722;BME280;6425;50.316;8.114;2022-10-28T10:14:54;99523.66;;;20.72;61.11
12722;BME280;6425;50.316;8.114;2022-10-28T10:20:01;99524.38;;;21.26;60.58
12722;BME280;6425;50.316;8.114;2022-10-28T10:36:15;99501.41;;;25.11;45.61
12722;BME280;6425;50.316;8.114;2022-10-28T10:41:33;99498.59;;;25.11;43.58
12722;BME280;6425;50.316;8.114;2022-10-28T10:46:34;99504.19;;;23.36;46.59
12722;BME280;6425;50.316;8.114;2022-10-28T10:51:36;99507.22;;;21.85;51.33
12722;BME280;6425;50.316;8.114;2022-10-28T10:56:36;99483.03;;;22.50;49.85
12722;BME280;6425;50.316;8.114;2022-10-28T11:01:38;99481.59;;;23.50;46.94
12722;BME280;6425;50.316;8.114;2022-10-28T11:06:42;99482.59;;;25.11;45.55
12722;BME280;6425;50.316;8.114;2022-10-28T11:11:44;99477.63;;;22.92;49.24
12722;BME280;6425;50.316;8.114;2022-10-28T11:16:48;99468.25;;;22.96;51.24
12722;BME280;6425;50.316;8.114;2022-10-28T11:22:00;99472.28;;;22.78;51.80
12722;BME280;6425;50.316;8.114;2022-10-28T11:27:11;99465.00;;;24.41;46.04
12722;BME280;6425;50.316;8.114;2022-10-28T11:32:27;99464.91;;;22.00;60.04
12722;BME280;6425;50.316;8.114;2022-10-28T11:37:44;99465.66;;;21.14;64.05
12722;BME280;6425;50.316;8.114;2022-10-28T11:42:56;99436.19;;;21.83;62.38
12722;BME280;6425;50.316;8.114;2022-10-28T11:48:13;99450.47;;;21.29;64.18
12722;BME280;6425;50.316;8.114;2022-10-28T11:53:29;99444.19;;;21.15;64.10
12722;BME280;6425;50.316;8.114;2022-10-28T11:58:40;99432.59;;;23.23;52.62
12722;BME280;6425;50.316;8.114;2022-10-28T12:04:05;99428.03;;;23.39;52.53
12722;BME280;6425;50.316;8.114;2022-10-28T12:09:17;99399.63;;;22.40;47.65
12722;BME280;6425;50.316;8.114;2022-10-28T12:14:28;99401.69;;;23.19;45.54
12722;BME280;6425;50.316;8.114;2022-10-28T12:19:34;99401.63;;;23.28;47.17
12722;BME280;6425;50.316;8.114;2022-10-28T12:24:42;99401.56;;;23.78;44.56
12722;BME280;6425;50.316;8.114;2022-10-28T12:29:47;99385.41;;;23.63;44.52
12722;BME280;6425;50.316;8.114;2022-10-28T12:34:51;99391.25;;;24.37;41.81
12722;BME280;6425;50.316;8.114;2022-10-28T12:39:59;99390.72;;;25.45;41.08
12722;BME280;6425;50.316;8.114;2022-10-28T12:45:09;99388.47;;;24.98;40.58
12722;BME280;6425;50.316;8.114;2022-10-28T12:50:16;99391.16;;;23.46;43.07
12722;BME280;6425;50.316;8.114;2022-10-28T12:55:29;99394.81;;;23.80;42.60
12722;BME280;6425;50.316;8.114;2022-10-28T13:00:39;99404.63;;;25.41;39.50
12722;BME280;6425;50.316;8.114;2022-10-28T13:05:50;99388.97;;;24.88;42.35
12722;BME280;6425;50.316;8.114;2022-10-28T13:11:21;99390.78;;;23.68;43.42
12722;BME280;6425;50.316;8.114;2022-10-28T13:16:46;99403.50;;;22.56;48.27
12722;BME280;6425;50.316;8.114;2022-10-28T13:22:21;99396.09;;;22.69;46.53
12722;BME280;6425;50.316;8.114;2022-10-28T13:27:42;99394.31;;;23.77;43.89
12722;BME280;6425;50.316;8.114;2022-10-28T13:32:44;99400.50;;;22.99;46.88
12722;BME280;6425;50.316;8.114;2022-10-28T13:37:46;99388.53;;;22.22;48.72
12722;BME280;6425;50.316;8.114;2022-10-28T13:42:50;99378.06;;;22.87;47.92
12722;BME280;6425;50.316;8.114;2022-10-28T13:47:50;99385.19;;;24.59;43.78
12722;BME280;6425;50.316;8.114;2022-10-28T13:58:49;99375.88;;;23.22;45.61
12722;BME280;6425;50.316;8.114;2022-10-28T14:03:50;99385.78;;;23.41;46.94
12722;BME280;6425;50.316;8.114;2022-10-28T14:08:51;99386.56;;;23.83;44.39
12722;BME280;6425;50.316;8.114;2022-10-28T14:13:55;99383.50;;;23.76;44.95
12722;BME280;6425;50.316;8.114;2022-10-28T14:19:01;99401.53;;;23.66;45.26
12722;BME280;6425;50.316;8.114;2022-10-28T14:24:11;99401.50;;;24.33;43.01
12722;BME280;6425;50.316;8.114;2022-10-28T14:29:27;99406.41;;;23.27;44.25
12722;BME280;6425;50.316;8.114;2022-10-28T14:34:40;99408.28;;;24.32;43.46
12722;BME280;6425;50.316;8.114;2022-10-28T14:39:52;99402.56;;;23.74;44.43
12722;BME280;6425;50.316;8.114;2022-10-28T14:45:11;99411.31;;;23.72;45.34
12722;BME280;6425;50.316;8.114;2022-10-28T14:50:18;99415.22;;;23.80;44.97
12722;BME280;6425;50.316;8.114;2022-10-28T14:55:24;99429.34;;;23.42;46.26
12722;BME280;6425;50.316;8.114;2022-10-28T15:00:26;99422.00;;;23.08;45.65
12722;BME280;6425;50.316;8.114;2022-10-28T15:05:29;99430.94;;;23.01;46.36
12722;BME280;6425;50.316;8.114;2022-10-28T15:10:31;99435.66;;;23.00;46.23
12722;BME280;6425;50.316;8.114;2022-10-28T15:15:33;99444.22;;;22.19;47.92
12722;BME280;6425;50.316;8.114;2022-10-28T15:20:34;99433.59;;;21.69;49.24
12722;BME280;6425;50.316;8.114;2022-10-28T15:25:35;99437.94;;;22.22;48.25
12722;BME280;6425;50.316;8.114;2022-10-28T15:30:39;99430.44;;;21.79;49.25
12722;BME280;6425;50.316;8.114;2022-10-28T15:35:41;99421.09;;;21.84;48.50
12722;BME280;6425;50.316;8.114;2022-10-28T15:40:41;99426.34;;;22.02;48.44
12722;BME280;6425;50.316;8.114;2022-10-28T15:45:44;99430.56;;;22.17;48.56
12722;BME280;6425;50.316;8.114;2022-10-28T15:51:12;99430.63;;;21.74;50.14
12722;BME280;6425;50.316;8.114;2022-10-28T15:56:19;99429.63;;;21.26;51.19
12722;BME280;6425;50.316;8.114;2022-10-28T16:01:35;99423.66;;;20.53;53.08
12722;BME280;6425;50.316;8.114;2022-10-28T16:06:36;99429.50;;;20.35;53.78
12722;BME280;6425;50.316;8.114;2022-10-28T16:11:40;99442.34;;;20.53;53.74
12722;BME280;6425;50.316;8.114;2022-10-28T16:16:43;99452.56;;;20.35;54.24
12722;BME280;6425;50.316;8.114;2022-10-28T16:21:43;99443.66;;;20.24;54.52
12722;BME280;6425;50.316;8.114;2022-10-28T16:26:44;99433.41;;;20.11;54.37
12722;BME280;6425;50.316;8.114;2022-10-28T16:31:49;99438.97;;;20.11;54.96
12722;BME280;6425;50.316;8.114;2022-10-28T16:36:50;99455.41;;;20.21;54.67
12722;BME280;6425;50.316;8.114;2022-10-28T16:41:52;99456.53;;;20.43;54.63
12722;BME280;6425;50.316;8.114;2022-10-28T16:46:55;99456.00;;;20.63;54.10
12722;BME280;6425;50.316;8.114;2022-10-28T16:51:55;99469.31;;;20.84;53.84
12722;BME280;6425;50.316;8.114;2022-10-28T17:07:15;99487.91;;;20.35;54.56
12722;BME280;6425;50.316;8.114;2022-10-28T17:12:18;99500.06;;;20.16;55.48
12722;BME280;6425;50.316;8.114;2022-10-28T17:17:19;99500.75;;;19.63;56.46
12722;BME280;6425;50.316;8.114;2022-10-28T17:22:21;99494.22;;;19.32;58.06
12722;BME280;6425;50.316;8.114;2022-10-28T17:27:21;99495.19;;;19.63;56.67
12722;BME280;6425;50.316;8.114;2022-10-28T17:32:22;99504.22;;;20.05;55.29
12722;BME280;6425;50.316;8.114;2022-10-28T17:37:24;99516.38;;;20.32;54.04
12722;BME280;6425;50.316;8.114;2022-10-28T17:42:25;99520.91;;;20.05;54.96
12722;BME280;6425;50.316;8.114;2022-10-28T17:47:25;99531.16;;;20.63;53.54
12722;BME280;6425;50.316;8.114;2022-10-28T17:52:27;99527.88;;;20.39;54.18
12722;BME280;6425;50.316;8.114;2022-10-28T17:57:28;99529.00;;;20.60;53.70
12722;BME280;6425;50.316;8.114;2022-10-28T18:02:28;99532.69;;;20.47;54.13
12722;BME280;6425;50.316;8.114;2022-10-28T18:07:30;99534.56;;;19.57;56.12
12722;BME280;6425;50.316;8.114;2022-10-28T18:12:31;99511.94;;;18.94;58.35
12722;BME280;6425;50.316;8.114;2022-10-28T18:17:31;99525.03;;;18.47;60.18
12722;BME280;6425;50.316;8.114;2022-10-28T18:22:33;99523.34;;;18.33;61.03
12722;BME280;6425;50.316;8.114;2022-10-28T18:27:36;99519.88;;;18.41;60.58
12722;BME280;6425;50.316;8.114;2022-10-28T18:32:36;99515.53;;;18.02;62.32
12722;BME280;6425;50.316;8.114;2022-10-28T18:37:40;99521.25;;;17.73;63.05
12722;BME280;6425;50.316;8.114;2022-10-28T18:42:41;99516.50;;;18.11;62.00
12722;BME280;6425;50.316;8.114;2022-10-28T18:47:41;99521.03;;;18.53;60.49
12722;BME280;6425;50.316;8.114;2022-10-28T19:26:01;99551.69;;;18.29;60.88
12722;BME280;6425;50.316;8.114;2022-10-28T19:31:03;99560.28;;;17.76;62.88
12722;BME280;6425;50.316;8.114;2022-10-28T19:36:06;99554.53;;;17.49;63.81
12722;BME280;6425;50.316;8.114;2022-10-28T19:41:11;99554.28;;;17.02;65.79
12722;BME280;6425;50.316;8.114;2022-10-28T19:46:17;99572.50;;;17.75;63.94
12722;BME280;6425;50.316;8.114;2022-10-28T19:51:19;99578.34;;;17.69;64.33
12722;BME280;6425;50.316;8.114;2022-10-28T19:56:22;99571.00;;;17.83;62.60
12722;BME280;6425;50.316;8.114;2022-10-28T20:01:24;99563.31;;;18.13;63.26
12722;BME280;6425;50.316;8.114;2022-10-28T20:06:28;99580.50;;;17.96;63.19
12722;BME280;6425;50.316;8.114;2022-10-28T20:11:33;99571.13;;;18.62;61.18
12722;BME280;6425;50.316;8.114;2022-10-28T20:16:34;99584.19;;;18.75;60.47
12722;BME280;6425;50.316;8.114;2022-10-28T20:21:34;99583.28;;;18.47;61.17
12722;BME280;6425;50.316;8.114;2022-10-28T20:26:37;99566.75;;;18.23;62.27
12722;BME280;6425;50.316;8.114;2022-10-28T20:31:37;99580.81;;;18.46;61.67
12722;BME280;6425;50.316;8.114;2022-10-28T20:36:39;99567.53;;;18.10;62.57
12722;BME280;6425;50.316;8.114;2022-10-28T20:41:43;99602.03;;;17.61;64.39
12722;BME280;6425;50.316;8.114;2022-10-28T20:46:44;99606.56;;;16.12;69.77
12722;BME280;6425;50.316;8.114;2022-10-28T20:51:44;99611.09;;;16.95;67.90
12722;BME280;6425;50.316;8.114;2022-10-28T20:56:46;99620.50;;;17.71;64.45
12722;BME280;6425;50.316;8.114;2022-10-28T21:01:48;99622.09;;;17.96;63.49
12722;BME280;6425;50.316;8.114;2022-10-28T21:06:48;99627.28;;;17.36;65.91
12722;BME280;6425;50.316;8.114;2022-10-28T21:11:50;99626.59;;;17.92;63.53
12722;BME280;6425;50.316;8.114;2022-10-28T21:16:51;99613.88;;;17.43;65.29
12722;BME280;6425;50.316;8.114;2022-10-28T21:21:51;99624.31;;;17.51;65.17
12722;BME280;6425;50.316;8.114;2022-10-28T21:26:53;99619.13;;;17.20;65.76
12722;BME280;6425;50.316;8.114;2022-10-28T21:31:54;99616.53;;;17.53;65.02
12722;BME280;6425;50.316;8.114;2022-10-28T21:36:54;99624.91;;;17.72;65.02
12722;BME280;6425;50.316;8.114;2022-10-28T21:41:56;99629.44;;;17.63;64.82
12722;BME280;6425;50.316;8.114;2022-10-28T21:46:56;99636.78;;;17.96;63.92
12722;BME280;6425;50.316;8.114;2022-10-28T21:51:57;99629.75;;;18.74;61.49
12722;BME280;6425;50.316;8.114;2022-10-28T21:56:59;99634.13;;;18.62;61.21
12722;BME280;6425;50.316;8.114;2022-10-28T22:02:00;99626.22;;;19.29;58.60
12722;BME280;6425;50.316;8.114;2022-10-28T22:07:00;99644.38;;;19.54;58.60
12722;BME280;6425;50.316;8.114;2022-10-28T22:12:03;99637.03;;;18.70;59.53
12722;BME280;6425;50.316;8.114;2022-10-28T22:17:03;99629.66;;;18.09;62.51
12722;BME280;6425;50.316;8.114;2022-10-28T22:22:04;99634.97;;;18.24;62.43
12722;BME280;6425;50.316;8.114;2022-10-28T22:27:06;99642.38;;;18.29;62.23
12722;BME280;6425;50.316;8.114;2022-10-28T22:32:06;99635.34;;;17.99;62.07
12722;BME280;6425;50.316;8.114;2022-10-28T22:37:07;99621.00;;;17.25;64.50
12722;BME280;6425;50.316;8.114;2022-10-28T22:42:09;99627.19;;;16.59;66.68
12722;BME280;6425;50.316;8.114;2022-10-28T22:47:09;99624.94;;;16.95;66.34
12722;BME280;6425;50.316;8.114;2022-10-28T22:52:10;99620.63;;;17.37;64.57
12722;BME280;6425;50.316;8.114;2022-10-28T22:57:12;99618.72;;;17.32;64.74
12722;BME280;6425;50.316;8.114;2022-10-28T23:02:12;99625.06;;;17.09;63.10
12722;BME280;6425;50.316;8.114;2022-10-28T23:07:12;99621.75;;;16.09;69.17
12722;BME280;6425;50.316;8.114;2022-10-28T23:12:14;99639.59;;;16.61;67.64
12722;BME280;6425;50.316;8.114;2022-10-28T23:17:15;99633.25;;;16.61;65.96
12722;BME280;6425;50.316;8.114;2022-10-28T23:22:15;99651.41;;;13.91;75.24
12722;BME280;6425;50.316;8.114;2022-10-28T23:27:17;99636.03;;;14.41;75.29
12722;BME280;6425;50.316;8.114;2022-10-28T23:32:18;99655.56;;;13.98;76.05
12722;BME280;6425;50.316;8.114;2022-10-28T23:37:18;99653.16;;;14.68;73.24
12722;BME280;6425;50.316;8.114;2022-10-28T23:42:21;99648.72;;;14.93;74.81
12722;BME280;6425;50.316;8.114;2022-10-28T23:47:22;99645.34;;;15.21;71.18
12722;BME280;6425;50.316;8.114;2022-10-28T23:52:23;99651.41;;;15.28;70.97
12722;BME280;6425;50.316;8.114;2022-10-28T23:57:25;99642.53;;;15.42;69.11
